Bradford-on-Avon, United Kingdom
Current Conditions -  °F | °C
As of 9:50 AM on Thursday 29 Jan 2015 (Local Time) from EGGD Reporting Station
Rain Showers Rain Showers  
Wind Chill: 29°   Ceiling: Unl
Heat Index: 37°   Visibility: 6mi
Dew Point: 34°   Wind: 13mph
Humidity: 87%   Direction: 250°WSW
Pressure: 29.15"   Gusts: NA
Location:  51.35°N, 2.25°W
Report Text: EGGD 290950Z 25011KT 9999 VCSH FEW019 SCT029 03/01 Q0987
Loading
Personal Weather Stations






























Interactive Weather Map New forecast layout! Learn more

10-Day Weather Forecast

Advertisements
Track Severe Weather on mobile